Time;durP1;ratioP1;P1;durP2;ratioP2;P2;SDS_P1;SDS_P2;PMS_P1;PMS_P2;Temp;Humidity;BMP_temperature;BMP_pressure;BME280_temperature;BME280_humidity;BME280_pressure;Samples;Min_cycle;Max_cycle;Signal;HPM_P1;HPM_P2
2022/12/17 13:06:41;;;;;;;58.35;28.13;;;;;;;-0.42;46.43;102754.59;7393253;19;20427;-58
2022/12/17 13:09:16;;;;;;;60.97;27.60;;;;;;;-0.56;46.61;102767.28;7393410;19;20006;-60
2022/12/17 13:11:48;;;;;;;61.88;28.30;;;;;;;-0.56;46.57;102764.59;7394554;19;20025;-58
2022/12/17 13:14:28;;;;;;;54.97;26.60;;;;;;;-0.66;46.87;102761.56;7394716;19;20006;-58
2022/12/17 13:16:58;;;;;;;57.90;27.42;;;;;;;-0.81;47.24;102773.44;7395013;19;20002;-59
2022/12/17 13:19:32;;;;;;;65.22;29.08;;;;;;;-0.58;46.85;102769.38;7392166;19;20455;-57
2022/12/17 13:22:13;;;;;;;62.60;29.13;;;;;;;-0.58;46.72;102766.69;7394525;19;20463;-57
2022/12/17 13:24:44;;;;;;;62.40;30.60;;;;;;;-0.67;46.91;102762.63;7392618;19;20020;-58
2022/12/17 13:27:31;;;;;;;60.05;29.38;;;;;;;-1.01;47.38;102762.84;7394722;19;19999;-58
2022/12/17 13:30:10;;;;;;;61.58;27.27;;;;;;;-0.79;47.09;102765.16;7394400;19;20010;-59
2022/12/17 13:32:49;;;;;;;57.13;26.35;;;;;;;-0.72;46.74;102757.91;7392542;19;20003;-58
2022/12/17 13:35:24;;;;;;;58.40;27.38;;;;;;;-0.59;46.37;102760.50;7394479;19;20007;-59
2022/12/17 13:38:11;;;;;;;52.67;25.33;;;;;;;-0.49;46.25;102761.88;7393357;19;20007;-58
2022/12/17 13:40:45;;;;;;;54.50;24.50;;;;;;;-0.63;46.40;102764.66;7394108;19;20014;-59
2022/12/17 13:43:19;;;;;;;56.85;26.48;;;;;;;-0.48;46.37;102766.19;7392884;19;20460;-58
2022/12/17 13:45:45;;;;;;;55.67;25.38;;;;;;;-0.52;46.30;102760.47;7394699;19;20006;-59
2022/12/17 13:48:24;;;;;;;59.75;26.27;;;;;;;-0.70;46.65;102760.38;7392908;19;20455;-58
2022/12/17 13:51:00;;;;;;;55.15;25.30;;;;;;;-0.63;46.60;102761.97;7393520;19;20510;-59
2022/12/17 13:53:28;;;;;;;62.13;27.85;;;;;;;-0.52;46.50;102756.94;7393478;19;20011;-59
2022/12/17 13:55:56;;;;;;;57.08;25.58;;;;;;;-0.64;46.51;102762.19;7394336;19;20003;-59
2022/12/17 13:58:27;;;;;;;55.28;25.20;;;;;;;-0.62;46.72;102760.13;7390353;19;20414;-57
2022/12/17 14:01:13;;;;;;;55.95;25.13;;;;;;;-0.54;46.54;102759.88;7394174;19;19995;-59
2022/12/17 14:03:43;;;;;;;49.17;22.92;;;;;;;-0.66;46.51;102757.03;7392124;19;19999;-58
2022/12/17 14:06:10;;;;;;;50.60;22.02;;;;;;;-0.76;46.77;102765.56;7392254;19;20011;-58
2022/12/17 14:08:36;;;;;;;47.60;22.45;;;;;;;-0.66;46.73;102764.25;7391742;19;20010;-58
2022/12/17 14:13:49;;;;;;;50.95;21.75;;;;;;;-0.92;46.89;102766.09;7390915;19;19995;-59
2022/12/17 14:16:19;;;;;;;41.85;20.00;;;;;;;-0.80;46.83;102766.22;7392705;19;20002;-58
2022/12/17 14:18:50;;;;;;;49.33;21.70;;;;;;;-0.62;46.81;102762.81;7391207;19;20025;-58
2022/12/17 14:21:17;;;;;;;50.20;22.58;;;;;;;-0.60;46.68;102774.94;7393503;19;20011;-57
2022/12/17 14:23:44;;;;;;;46.42;20.73;;;;;;;-0.61;46.74;102772.47;7391291;19;20435;-58
2022/12/17 14:26:12;;;;;;;48.78;21.35;;;;;;;-0.56;46.42;102769.97;7391382;19;20002;-57
2022/12/17 14:28:49;;;;;;;45.22;21.88;;;;;;;-0.51;46.40;102783.53;7391314;19;20006;-57
2022/12/17 14:31:20;;;;;;;46.67;21.60;;;;;;;-0.60;46.65;102788.34;7392265;19;20005;-58
2022/12/17 14:33:47;;;;;;;47.95;21.55;;;;;;;-0.51;46.52;102775.50;7391836;19;20005;-58
2022/12/17 14:36:19;;;;;;;51.97;23.55;;;;;;;-0.75;46.92;102783.28;7392519;19;20235;-57
2022/12/17 14:39:19;;;;;;;47.95;21.40;;;;;;;-1.07;47.54;102779.75;7389024;19;20013;-59
2022/12/17 14:44:30;;;;;;;50.95;22.98;;;;;;;-1.06;47.54;102780.56;7390729;19;20006;-57
2022/12/17 14:47:16;;;;;;;46.47;20.83;;;;;;;-0.96;47.58;102778.25;7391275;19;19998;-57
2022/12/17 14:49:54;;;;;;;49.70;21.95;;;;;;;-0.77;47.29;102787.25;7392448;19;19999;-59
2022/12/17 14:52:44;;;;;;;49.83;22.27;;;;;;;-0.99;47.61;102781.34;7390794;19;20131;-58
2022/12/17 14:55:54;;;;;;;48.28;21.38;;;;;;;-0.81;47.38;102789.53;7390503;19;20458;-59
2022/12/17 14:58:21;;;;;;;49.25;21.48;;;;;;;-0.81;47.31;102794.06;7388514;19;20009;-57
2022/12/17 15:01:05;;;;;;;49.53;21.58;;;;;;;-0.84;47.32;102798.00;7391932;19;20399;-58
2022/12/17 15:03:36;;;;;;;50.20;22.10;;;;;;;-0.95;47.43;102794.13;7389873;19;19999;-58
2022/12/17 15:06:05;;;;;;;52.83;22.20;;;;;;;-1.14;47.95;102801.25;7388528;19;20011;-59
2022/12/17 15:08:51;;;;;;;59.25;23.35;;;;;;;-1.22;48.13;102792.63;7389962;19;20471;-59
2022/12/17 15:11:19;;;;;;;56.03;23.05;;;;;;;-1.06;47.98;102793.97;7391156;19;20106;-58
2022/12/17 15:13:45;;;;;;;53.33;24.42;;;;;;;-1.08;47.85;102793.38;7389710;19;20003;-58
2022/12/17 15:16:11;;;;;;;46.83;21.60;;;;;;;-1.04;47.78;102799.94;7390930;19;20074;-57
2022/12/17 15:18:38;;;;;;;48.28;20.90;;;;;;;-1.10;47.83;102798.94;7389571;19;20010;-58
2022/12/17 15:21:04;;;;;;;52.88;22.63;;;;;;;-1.04;47.81;102802.63;7390207;19;20015;-58
2022/12/17 15:23:30;;;;;;;58.05;24.65;;;;;;;-0.93;47.43;102804.63;7389401;19;20095;-58
2022/12/17 15:25:56;;;;;;;59.80;23.98;;;;;;;-0.95;47.39;102801.34;7393385;19;20007;-58
2022/12/17 15:28:25;;;;;;;47.13;21.25;;;;;;;-0.93;47.44;102810.00;7397141;19;20458;-58
2022/12/17 15:30:51;;;;;;;52.78;21.23;;;;;;;-0.89;47.55;102797.81;7398917;19;20083;-57
2022/12/17 15:33:17;;;;;;;51.58;21.55;;;;;;;-0.93;47.49;102796.59;7395695;19;20394;-58
2022/12/17 15:35:42;;;;;;;45.95;20.85;;;;;;;-0.80;47.21;102799.22;7398472;19;20006;-58
2022/12/17 15:38:10;;;;;;;53.47;22.00;;;;;;;-0.81;47.39;102788.69;7396779;19;19999;-58
2022/12/17 15:40:36;;;;;;;48.28;20.70;;;;;;;-0.91;47.56;102789.16;7397949;19;20336;-58
2022/12/17 15:43:10;;;;;;;50.13;20.15;;;;;;;-0.90;47.41;102790.81;7396635;19;20517;-59
2022/12/17 15:45:48;;;;;;;44.28;20.67;;;;;;;-1.04;47.48;102792.75;7397987;19;20003;-59
2022/12/17 15:48:16;;;;;;;46.60;18.85;;;;;;;-0.88;47.27;102804.81;7396732;19;20014;-58
2022/12/17 15:50:42;;;;;;;48.45;20.27;;;;;;;-0.94;47.23;102803.81;7395691;19;20002;-59
2022/12/17 15:53:08;;;;;;;52.47;21.23;;;;;;;-0.89;47.42;102805.88;7396357;19;20009;-57
2022/12/17 15:55:34;;;;;;;46.60;20.45;;;;;;;-0.86;47.24;102813.47;7397537;19;20299;-58
2022/12/17 15:58:01;;;;;;;48.72;21.45;;;;;;;-0.93;47.49;102813.50;7394429;19;20010;-59
2022/12/17 16:00:26;;;;;;;47.47;20.75;;;;;;;-1.01;47.41;102816.44;7395864;19;20023;-58
2022/12/17 16:02:52;;;;;;;50.38;20.65;;;;;;;-1.19;47.90;102824.34;7396335;19;20388;-58
2022/12/17 16:05:18;;;;;;;43.25;19.92;;;;;;;-1.16;47.61;102823.91;7392424;19;19994;-57
2022/12/17 16:07:44;;;;;;;43.10;19.67;;;;;;;-1.26;48.00;102821.69;7394296;19;20043;-58
2022/12/17 16:10:11;;;;;;;46.95;20.92;;;;;;;-1.39;48.11;102824.41;7396802;19;19998;-58
2022/12/17 16:12:44;;;;;;;48.83;21.83;;;;;;;-1.34;48.15;102832.66;7396317;19;20029;-57
2022/12/17 16:15:11;;;;;;;52.57;21.77;;;;;;;-1.18;47.89;102834.03;7395009;19;20018;-62
2022/12/17 16:17:37;;;;;;;48.42;21.83;;;;;;;-1.20;47.91;102834.25;7395514;19;20427;-59
2022/12/17 16:20:04;;;;;;;50.35;21.77;;;;;;;-1.04;47.51;102830.28;7397345;19;20007;-61
2022/12/17 16:22:30;;;;;;;50.33;22.75;;;;;;;-0.95;47.14;102838.88;7396153;19;20481;-59
2022/12/17 16:24:56;;;;;;;51.60;22.05;;;;;;;-0.89;47.15;102843.41;7393986;19;20007;-59
2022/12/17 16:27:22;;;;;;;52.25;21.60;;;;;;;-0.96;47.35;102839.91;7395987;19;20423;-59
2022/12/17 16:29:47;;;;;;;49.70;23.73;;;;;;;-0.92;47.24;102835.78;7396583;19;20068;-59
2022/12/17 16:32:14;;;;;;;56.70;24.73;;;;;;;-0.79;47.04;102840.25;7395850;19;20387;-58
2022/12/17 16:34:40;;;;;;;60.67;25.15;;;;;;;-0.79;47.12;102841.09;7395398;19;20002;-59
2022/12/17 16:37:06;;;;;;;51.03;22.95;;;;;;;-0.92;47.31;102838.47;7395670;19;20408;-60
2022/12/17 16:39:32;;;;;;;48.28;20.92;;;;;;;-0.89;47.21;102838.03;7395710;19;20003;-59
2022/12/17 16:41:57;;;;;;;50.65;21.10;;;;;;;-0.97;47.23;102833.75;7395457;19;20358;-61
2022/12/17 16:44:24;;;;;;;49.60;21.55;;;;;;;-1.01;47.23;102835.22;7391194;19;19990;-60
2022/12/17 16:46:51;;;;;;;47.00;21.88;;;;;;;-1.00;47.29;102834.16;7396373;19;20006;-59
2022/12/17 16:49:23;;;;;;;48.97;22.70;;;;;;;-0.97;47.11;102841.78;7393632;19;20010;-60
2022/12/17 16:51:50;;;;;;;50.83;22.77;;;;;;;-1.01;47.24;102837.06;7395872;19;20034;-60
2022/12/17 16:54:18;;;;;;;46.83;21.55;;;;;;;-1.04;47.38;102842.84;7395708;19;19999;-59
2022/12/17 16:56:45;;;;;;;52.33;22.15;;;;;;;-1.11;47.38;102842.84;7394464;19;20078;-59
2022/12/17 16:59:12;;;;;;;45.95;21.42;;;;;;;-1.04;47.27;102842.84;7394022;19;20006;-60
2022/12/17 17:01:40;;;;;;;49.85;22.65;;;;;;;-0.98;47.06;102833.94;7395885;19;20010;-60
2022/12/17 17:04:08;;;;;;;47.92;22.63;;;;;;;-1.02;46.96;102835.44;7392778;19;20102;-60
2022/12/17 17:06:38;;;;;;;50.63;23.42;;;;;;;-0.97;46.78;102836.41;7394485;19;20002;-59
2022/12/17 17:09:05;;;;;;;53.75;23.30;;;;;;;-1.11;47.10;102837.50;7392742;19;20017;-59
2022/12/17 17:11:31;;;;;;;49.60;22.05;;;;;;;-1.14;47.11;102836.09;7393540;19;20074;-58
2022/12/17 17:13:56;;;;;;;55.63;24.63;;;;;;;-1.14;47.14;102840.63;7393895;19;19990;-59
2022/12/17 17:16:23;;;;;;;54.60;22.98;;;;;;;-1.08;47.00;102849.66;7392310;19;20470;-61
2022/12/17 17:18:50;;;;;;;55.28;23.58;;;;;;;-1.15;46.86;102861.22;7393618;19;19998;-58
2022/12/17 17:21:18;;;;;;;52.92;23.50;;;;;;;-1.31;47.33;102853.63;7394367;19;20003;-60
2022/12/17 17:23:45;;;;;;;48.53;22.55;;;;;;;-1.27;46.87;102860.25;7392862;19;20002;-60
2022/12/17 17:26:11;;;;;;;53.50;24.25;;;;;;;-1.34;46.95;102870.16;7391906;19;20078;-59
2022/12/17 17:28:37;;;;;;;51.38;23.50;;;;;;;-1.32;46.85;102862.72;7393011;19;19994;-58
2022/12/17 17:31:06;;;;;;;54.25;24.15;;;;;;;-1.43;47.13;102871.41;7391930;19;20074;-59
2022/12/17 17:33:37;;;;;;;54.10;23.55;;;;;;;-1.60;47.42;102876.38;7391235;19;20456;-59
2022/12/17 17:36:15;;;;;;;56.00;23.83;;;;;;;-1.52;47.10;102873.47;7392252;19;20322;-59
2022/12/17 17:38:41;;;;;;;54.88;24.90;;;;;;;-1.56;47.12;102867.72;7392255;19;20014;-60
2022/12/17 17:41:11;;;;;;;50.63;23.20;;;;;;;-1.49;47.04;102865.03;7393122;19;20007;-59
2022/12/17 17:43:37;;;;;;;58.05;23.33;;;;;;;-1.57;47.15;102854.53;7392347;19;20352;-61
2022/12/17 17:46:04;;;;;;;50.45;23.48;;;;;;;-1.86;47.54;102868.16;7392739;19;20010;-59
2022/12/17 17:48:34;;;;;;;53.88;23.33;;;;;;;-1.78;47.09;102864.44;7388186;19;20014;-59
2022/12/17 17:51:03;;;;;;;54.17;23.88;;;;;;;-1.75;47.20;102873.91;7393105;19;19999;-60
2022/12/17 17:53:29;;;;;;;45.72;22.20;;;;;;;-1.78;47.15;102866.28;7390777;19;20009;-60
2022/12/17 17:56:01;;;;;;;50.20;22.25;;;;;;;-1.69;46.87;102875.78;7392552;19;20003;-60
2022/12/17 17:58:27;;;;;;;43.25;20.48;;;;;;;-1.67;46.51;102887.09;7391992;19;20017;-60
2022/12/17 18:00:52;;;;;;;50.03;22.63;;;;;;;-1.67;46.61;102884.41;7393521;19;20018;-60
2022/12/17 18:03:18;;;;;;;51.75;22.83;;;;;;;-1.82;46.71;102895.34;7391729;19;20006;-59
2022/12/17 18:05:44;;;;;;;49.60;22.50;;;;;;;-1.82;46.87;102894.53;7392172;19;20007;-60
2022/12/17 18:08:09;;;;;;;46.78;21.58;;;;;;;-1.56;46.27;102890.97;7390735;19;20002;-59
2022/12/17 18:10:35;;;;;;;46.10;22.20;;;;;;;-1.56;45.95;102890.97;7391437;19;20005;-59
2022/12/17 18:15:45;;;;;;;58.10;26.75;;;;;;;-1.60;45.94;102903.97;7392428;19;19999;-60
2022/12/17 18:18:11;;;;;;;60.67;26.73;;;;;;;-1.72;46.33;102905.63;7391880;19;20025;-61
2022/12/17 18:20:37;;;;;;;47.35;23.75;;;;;;;-1.79;46.39;102896.75;7391926;19;20010;-60
2022/12/17 18:23:03;;;;;;;52.90;24.63;;;;;;;-1.81;46.44;102899.66;7392051;19;20002;-60
2022/12/17 18:25:29;;;;;;;50.08;23.90;;;;;;;-1.99;46.60;102900.28;7390559;19;20010;-60
2022/12/17 18:27:54;;;;;;;51.25;24.08;;;;;;;-1.95;46.60;102901.50;7392260;19;20458;-58
2022/12/17 18:30:20;;;;;;;44.72;22.73;;;;;;;-1.85;46.49;102915.28;7391610;19;20023;-59
2022/12/17 18:32:48;;;;;;;51.65;22.92;;;;;;;-1.76;46.07;102915.09;7391105;19;20470;-60
2022/12/17 18:35:14;;;;;;;49.20;23.13;;;;;;;-1.78;46.08;102906.44;7392134;19;20029;-59
2022/12/17 18:37:40;;;;;;;46.08;21.73;;;;;;;-2.04;46.74;102908.09;7391448;19;20007;-59
2022/12/17 18:40:07;;;;;;;54.33;23.02;;;;;;;-1.94;46.60;102903.16;7389803;19;20489;-60
2022/12/17 18:45:17;;;;;;;47.70;22.30;;;;;;;-2.10;46.92;102906.22;7390317;19;19999;-60
2022/12/17 18:47:43;;;;;;;49.42;23.10;;;;;;;-2.04;46.57;102913.44;7390614;19;20650;-60
2022/12/17 18:50:11;;;;;;;47.90;22.70;;;;;;;-1.97;46.28;102908.91;7391728;19;20469;-59
2022/12/17 18:52:37;;;;;;;53.30;23.38;;;;;;;-1.91;46.08;102910.78;7390618;19;20011;-60
2022/12/17 18:55:03;;;;;;;52.95;25.73;;;;;;;-1.98;46.26;102917.97;7391239;19;20010;-60
2022/12/17 18:57:29;;;;;;;49.38;24.67;;;;;;;-1.97;46.28;102914.25;7389844;19;20420;-59
2022/12/17 18:59:55;;;;;;;51.78;24.08;;;;;;;-1.90;46.38;102915.09;7391198;19;20014;-59
2022/12/17 19:02:21;;;;;;;48.60;22.77;;;;;;;-1.98;46.38;102909.94;7390655;19;19999;-59
2022/12/17 19:04:47;;;;;;;43.00;22.25;;;;;;;-1.97;46.25;102916.13;7390180;19;20008;-60
2022/12/17 19:07:13;;;;;;;50.97;23.20;;;;;;;-1.95;46.13;102922.91;7389525;19;20228;-59
2022/12/17 19:09:41;;;;;;;44.85;22.55;;;;;;;-1.95;46.08;102911.38;7391159;19;20025;-61
2022/12/17 19:12:08;;;;;;;45.80;21.58;;;;;;;-1.93;46.02;102912.00;7389667;19;20002;-60
2022/12/17 19:14:34;;;;;;;48.42;23.02;;;;;;;-2.05;46.11;102919.81;7390029;19;20036;-60
2022/12/17 19:17:00;;;;;;;48.47;22.15;;;;;;;-1.97;45.97;102918.81;7390737;19;20335;-59
2022/12/17 19:19:26;;;;;;;46.90;22.98;;;;;;;-2.03;46.10;102926.63;7389115;19;19999;-60
2022/12/17 19:21:59;;;;;;;56.13;27.00;;;;;;;-1.99;45.95;102921.69;7391032;19;19999;-59
2022/12/17 19:24:24;;;;;;;47.28;23.63;;;;;;;-2.00;46.04;102920.03;7386743;19;19994;-60
2022/12/17 19:26:51;;;;;;;48.38;23.35;;;;;;;-1.85;45.60;102922.50;7390595;19;20001;-60
2022/12/17 19:29:18;;;;;;;50.60;23.73;;;;;;;-2.07;45.98;102921.88;7388423;19;20747;-60
2022/12/17 19:31:44;;;;;;;46.58;24.05;;;;;;;-1.97;45.82;102924.97;7390357;19;20089;-60
2022/12/17 19:34:13;;;;;;;49.92;24.05;;;;;;;-2.23;46.22;102925.75;7389055;19;19999;-60
2022/12/17 19:36:40;;;;;;;46.28;23.50;;;;;;;-2.14;46.13;102923.72;7390512;19;19991;-59
2022/12/17 19:39:10;;;;;;;49.70;23.30;;;;;;;-2.20;46.16;102933.38;7388443;19;20553;-60
2022/12/17 19:41:36;;;;;;;45.83;22.60;;;;;;;-2.19;46.02;102927.00;7389798;19;20332;-59
2022/12/17 19:44:04;;;;;;;46.03;21.60;;;;;;;-2.09;45.73;102926.63;7389129;19;20006;-59
2022/12/17 19:46:32;;;;;;;49.05;21.98;;;;;;;-2.09;45.73;102931.97;7389778;19;20074;-59
2022/12/17 19:48:58;;;;;;;47.45;23.48;;;;;;;-2.05;45.60;102938.53;7388732;19;20021;-60
2022/12/17 19:51:26;;;;;;;45.70;22.75;;;;;;;-2.12;45.75;102937.72;7389323;19;20003;-60
2022/12/17 19:53:53;;;;;;;47.10;22.35;;;;;;;-2.24;46.03;102946.34;7388759;19;20328;-59
2022/12/17 19:56:25;;;;;;;47.00;22.75;;;;;;;-2.24;45.97;102946.34;7387589;19;20339;-60
2022/12/17 19:58:59;;;;;;;49.15;23.40;;;;;;;-2.24;46.05;102940.16;7388003;19;19999;-60
2022/12/17 20:01:28;;;;;;;51.33;23.80;;;;;;;-2.27;45.84;102938.69;7389433;19;20106;-59
2022/12/17 20:03:54;;;;;;;51.70;24.30;;;;;;;-2.13;45.82;102946.75;7386808;19;19991;-59
2022/12/17 20:06:27;;;;;;;51.33;23.23;;;;;;;-1.99;45.24;102945.78;7388722;19;20014;-59
2022/12/17 20:08:52;;;;;;;42.80;21.52;;;;;;;-2.14;45.50;102947.81;7388537;19;20096;-60
2022/12/17 20:11:34;;;;;;;43.58;22.52;;;;;;;-2.20;45.54;102954.78;7389480;19;20018;-59
2022/12/17 20:14:19;;;;;;;40.92;20.65;;;;;;;-2.22;45.65;102949.63;7396158;19;20367;-59
2022/12/17 20:16:48;;;;;;;44.75;22.05;;;;;;;-2.37;46.00;102948.97;7391295;19;20018;-60
2022/12/17 20:19:17;;;;;;;48.63;23.30;;;;;;;-2.32;45.68;102943.03;7397147;19;20114;-60
2022/12/17 20:21:43;;;;;;;46.13;24.27;;;;;;;-2.26;45.55;102945.72;7396272;19;19995;-58
2022/12/17 20:24:10;;;;;;;47.45;23.70;;;;;;;-2.23;45.57;102953.34;7393079;19;20016;-58
2022/12/17 20:26:36;;;;;;;51.63;23.77;;;;;;;-2.31;45.64;102961.53;7394813;19;19998;-58
2022/12/17 20:29:04;;;;;;;46.42;22.98;;;;;;;-2.43;45.93;102968.47;7394956;19;20466;-58
2022/12/17 20:31:30;;;;;;;42.88;21.25;;;;;;;-2.32;45.73;102965.25;7396378;19;20021;-57
2022/12/17 20:33:57;;;;;;;42.40;21.88;;;;;;;-2.25;45.70;102965.25;7395180;19;20054;-57
2022/12/17 20:36:23;;;;;;;40.92;21.27;;;;;;;-2.24;45.47;102970.41;7394135;19;20002;-57
2022/12/17 20:38:48;;;;;;;42.53;21.63;;;;;;;-2.19;45.43;102968.97;7396142;19;20339;-58
2022/12/17 20:41:19;;;;;;;45.33;21.50;;;;;;;-2.32;45.52;102969.78;7395724;19;20107;-58
2022/12/17 20:43:46;;;;;;;38.45;19.88;;;;;;;-2.29;45.71;102967.50;7394692;19;20018;-58
2022/12/17 20:46:12;;;;;;;38.60;19.98;;;;;;;-2.27;45.33;102962.78;7394840;19;19995;-58
2022/12/17 20:48:39;;;;;;;39.33;20.20;;;;;;;-2.27;45.38;102962.78;7395577;19;20086;-59
2022/12/17 20:51:09;;;;;;;44.60;21.50;;;;;;;-2.32;45.51;102956.41;7395807;19;20009;-58
2022/12/17 20:53:36;;;;;;;43.28;21.20;;;;;;;-2.24;45.34;102956.22;7395076;19;20499;-58
2022/12/17 20:56:05;;;;;;;43.15;21.63;;;;;;;-2.24;45.43;102961.56;7394316;19;20309;-58
2022/12/17 20:58:31;;;;;;;43.38;20.88;;;;;;;-2.24;45.16;102961.56;7395942;19;20107;-58
2022/12/17 21:01:05;;;;;;;40.67;20.17;;;;;;;-2.27;45.26;102965.47;7395463;19;20034;-59
2022/12/17 21:03:31;;;;;;;42.10;21.08;;;;;;;-2.29;45.58;102969.38;7394361;19;20359;-58
2022/12/17 21:06:14;;;;;;;41.65;20.45;;;;;;;-2.12;44.94;102970.66;7394033;19;20002;-58
2022/12/17 21:08:41;;;;;;;38.40;20.35;;;;;;;-2.18;45.20;102976.78;7395219;19;19995;-57
2022/12/17 21:11:08;;;;;;;44.03;20.50;;;;;;;-2.16;44.84;102976.59;7393328;19;19999;-58
2022/12/17 21:13:34;;;;;;;41.88;20.38;;;;;;;-2.13;44.82;102974.34;7394177;19;20002;-58
2022/12/17 21:16:08;;;;;;;39.67;20.67;;;;;;;-2.25;45.16;102979.44;7394015;19;20014;-58
2022/12/17 21:18:35;;;;;;;40.65;20.60;;;;;;;-2.27;45.13;102968.13;7392550;19;20035;-58
2022/12/17 21:21:02;;;;;;;42.95;20.75;;;;;;;-2.27;45.03;102968.13;7394904;19;19999;-58
2022/12/17 21:23:28;;;;;;;46.17;21.33;;;;;;;-2.33;45.20;102963.56;7391192;19;20003;-59
2022/12/17 21:26:03;;;;;;;40.90;20.38;;;;;;;-2.40;45.39;102973.44;7393422;19;20489;-59
2022/12/17 21:28:30;;;;;;;38.58;19.92;;;;;;;-2.31;45.18;102972.25;7392684;19;20494;-58
2022/12/17 21:30:56;;;;;;;45.65;21.80;;;;;;;-2.35;45.15;102981.69;7395592;19;20007;-58
2022/12/17 21:33:21;;;;;;;42.08;20.33;;;;;;;-2.26;45.20;102991.19;7391707;19;20009;-59
2022/12/17 21:35:47;;;;;;;47.92;21.85;;;;;;;-2.18;44.88;102994.72;7393745;19;20066;-58
2022/12/17 21:38:14;;;;;;;44.72;20.30;;;;;;;-2.15;44.85;102997.00;7392901;19;20006;-58
2022/12/17 21:40:46;;;;;;;45.90;20.70;;;;;;;-2.18;44.87;102992.03;7393958;19;19999;-59
2022/12/17 21:43:12;;;;;;;42.45;20.00;;;;;;;-2.44;45.23;102990.91;7393210;19;20021;-58
2022/12/17 21:45:40;;;;;;;43.70;20.27;;;;;;;-2.20;45.07;103002.13;7394245;19;19998;-57
2022/12/17 21:48:15;;;;;;;41.85;19.65;;;;;;;-2.16;44.79;102993.50;7389310;19;20035;-59
2022/12/17 21:50:44;;;;;;;42.25;20.25;;;;;;;-2.31;45.03;102998.16;7393907;19;20002;-57
2022/12/17 21:53:11;;;;;;;39.97;19.35;;;;;;;-2.29;44.77;102999.63;7390953;19;20351;-58
2022/12/17 21:55:37;;;;;;;41.38;20.60;;;;;;;-2.34;45.16;103003.94;7393528;19;20310;-57
2022/12/17 21:58:03;;;;;;;42.03;21.10;;;;;;;-2.38;44.95;103003.47;7394443;19;20102;-58
2022/12/17 22:00:29;;;;;;;40.40;19.90;;;;;;;-2.37;45.18;103005.13;7393261;19;20530;-58
2022/12/17 22:02:55;;;;;;;42.83;20.17;;;;;;;-2.39;44.94;103007.19;7393171;19;20066;-58
2022/12/17 22:05:21;;;;;;;38.17;19.35;;;;;;;-2.37;45.09;103007.00;7391459;19;20451;-59
2022/12/17 22:07:46;;;;;;;38.92;18.75;;;;;;;-2.34;44.93;103004.75;7390885;19;20713;-59
2022/12/17 22:10:12;;;;;;;41.60;20.17;;;;;;;-2.28;44.78;102998.59;7392323;19;20002;-59
2022/12/17 22:15:37;;;;;;;37.17;18.52;;;;;;;-2.33;44.92;102998.34;7389648;19;20007;-58
2022/12/17 22:18:03;;;;;;;40.15;19.38;;;;;;;-2.36;44.99;103006.81;7393086;19;20025;-57
2022/12/17 22:20:28;;;;;;;39.08;19.77;;;;;;;-2.40;45.04;103008.22;7392871;19;19998;-57
2022/12/17 22:22:54;;;;;;;40.70;20.38;;;;;;;-2.44;45.05;103004.28;7392151;19;20001;-57
2022/12/17 22:25:20;;;;;;;44.03;20.00;;;;;;;-2.30;44.73;103008.66;7389106;19;20007;-57
2022/12/17 22:27:46;;;;;;;41.53;19.63;;;;;;;-2.36;44.82;103012.16;7393164;19;20435;-57
2022/12/17 22:33:03;;;;;;;41.30;19.15;;;;;;;-2.32;44.56;103007.22;7391744;19;19994;-57
2022/12/17 22:35:41;;;;;;;39.80;19.98;;;;;;;-2.43;44.67;103012.13;7391587;19;20011;-58
2022/12/17 22:38:07;;;;;;;42.08;20.95;;;;;;;-2.33;44.61;103011.72;7392171;19;20004;-58
2022/12/17 22:40:34;;;;;;;45.70;21.40;;;;;;;-2.43;44.61;103011.28;7390201;19;20340;-58
2022/12/17 22:45:43;;;;;;;41.83;20.77;;;;;;;-2.53;44.69;103022.34;7391477;19;19999;-58
2022/12/17 22:48:11;;;;;;;56.88;20.95;;;;;;;-2.54;44.94;103014.53;7390343;19;20010;-58
2022/12/17 22:50:38;;;;;;;43.25;20.65;;;;;;;-2.56;44.98;103006.72;7391503;19;20571;-57
2022/12/17 22:53:10;;;;;;;41.17;20.40;;;;;;;-2.42;44.42;103005.72;7391311;19;20316;-58
2022/12/17 22:55:36;;;;;;;42.83;20.33;;;;;;;-2.50;44.79;103002.41;7390284;19;20486;-59
2022/12/17 22:58:02;;;;;;;38.40;19.38;;;;;;;-2.51;44.88;103003.41;7392468;19;20003;-58
2022/12/17 23:00:33;;;;;;;42.30;21.35;;;;;;;-2.61;44.86;103004.63;7391954;19;20003;-57
2022/12/17 23:02:59;;;;;;;41.45;20.42;;;;;;;-2.62;45.24;103000.28;7390765;19;20002;-57
2022/12/17 23:05:26;;;;;;;37.63;19.30;;;;;;;-2.50;44.82;103005.06;7389692;19;20022;-57
2022/12/17 23:07:52;;;;;;;44.45;21.13;;;;;;;-2.46;44.72;103001.81;7389914;19;20009;-57
2022/12/17 23:10:18;;;;;;;40.35;19.90;;;;;;;-2.55;44.84;103003.00;7389757;19;20325;-57
2022/12/17 23:12:50;;;;;;;45.28;20.00;;;;;;;-2.56;44.83;103001.38;7390874;19;20018;-58
2022/12/17 23:15:35;;;;;;;39.63;19.60;;;;;;;-2.54;44.84;102999.31;7389372;19;20016;-59
2022/12/17 23:18:04;;;;;;;40.35;20.52;;;;;;;-2.58;44.98;102992.69;7387441;19;20011;-56
2022/12/17 23:20:32;;;;;;;37.85;20.00;;;;;;;-2.57;44.96;102993.53;7389787;19;20078;-57
2022/12/17 23:22:59;;;;;;;39.42;18.90;;;;;;;-2.53;44.87;102995.59;7389202;19;20003;-57
2022/12/17 23:25:25;;;;;;;38.13;19.02;;;;;;;-2.49;44.95;102990.69;7387241;19;20086;-58
2022/12/17 23:27:52;;;;;;;35.78;18.60;;;;;;;-2.70;45.13;103000.44;7391307;19;20003;-59
2022/12/17 23:30:18;;;;;;;42.45;20.48;;;;;;;-2.63;45.09;102997.81;7390460;19;20455;-59
2022/12/17 23:32:45;;;;;;;39.60;20.67;;;;;;;-2.74;45.31;103012.56;7388686;19;19998;-58
2022/12/17 23:35:11;;;;;;;39.22;20.20;;;;;;;-2.57;44.99;103005.03;7390332;19;20010;-59
2022/12/17 23:37:39;;;;;;;39.25;19.27;;;;;;;-2.61;44.94;103009.16;7390382;19;20463;-58
2022/12/17 23:40:09;;;;;;;40.70;20.77;;;;;;;-2.55;44.95;103010.19;7390434;19;20023;-57
2022/12/17 23:42:34;;;;;;;43.95;20.83;;;;;;;-2.55;44.67;103004.84;7390484;19;20038;-57
2022/12/17 23:45:00;;;;;;;38.90;19.70;;;;;;;-2.54;44.86;103012.69;7388591;19;20002;-58
2022/12/17 23:47:26;;;;;;;40.70;20.80;;;;;;;-2.61;44.90;103020.66;7393960;19;20435;-58
2022/12/17 23:49:51;;;;;;;42.35;19.58;;;;;;;-2.77;45.21;103027.16;7397651;19;20342;-59
2022/12/17 23:52:17;;;;;;;39.25;20.60;;;;;;;-2.90;45.53;103029.72;7397489;19;20066;-59
2022/12/17 23:54:43;;;;;;;38.42;20.52;;;;;;;-2.89;45.57;103033.25;7397292;19;20339;-59
2022/12/17 23:57:09;;;;;;;36.92;19.92;;;;;;;-2.71;45.24;103032.72;7394727;19;19990;-59
2022/12/17 23:59:34;;;;;;;45.20;21.80;;;;;;;-2.74;45.14;103025.94;7396202;19;20011;-58
